Time;durP1;ratioP1;P1;durP2;ratioP2;P2;SDS_P1;SDS_P2;PMS_P1;PMS_P2;Temp;Humidity;BMP_temperature;BMP_pressure;BME280_temperature;BME280_humidity;BME280_pressure;Samples;Min_cycle;Max_cycle;Signal;HPM_P1;HPM_P2
2021/11/04 00:00:29;;;;;;;13.98;10.50;;;;;;;7.65;81.17;96671.09;5092962;28;20044;-65
2021/11/04 00:02:56;;;;;;;16.05;10.50;;;;;;;7.59;81.61;96656.47;5093184;28;20020;-63
2021/11/04 00:05:23;;;;;;;16.23;10.75;;;;;;;7.54;81.76;96657.47;5092984;28;20066;-60
2021/11/04 00:07:51;;;;;;;17.27;11.23;;;;;;;7.51;81.62;96649.75;5093025;28;20024;-66
2021/11/04 00:10:19;;;;;;;17.13;10.52;;;;;;;7.57;82.13;96657.41;5092915;28;20028;-63
2021/11/04 00:12:45;;;;;;;16.90;9.80;;;;;;;7.59;81.77;96659.06;5092955;28;20482;-65
2021/11/04 00:15:11;;;;;;;16.17;10.18;;;;;;;7.57;81.57;96657.41;5092996;28;20033;-61
2021/11/04 00:17:37;;;;;;;18.52;9.10;;;;;;;7.50;81.40;96655.84;5093066;28;20028;-61
2021/11/04 00:20:05;;;;;;;16.70;10.60;;;;;;;7.41;82.40;96657.75;5093098;28;20070;-64
2021/11/04 00:22:31;;;;;;;21.95;12.25;;;;;;;7.46;83.66;96652.44;5092906;28;20047;-61
2021/11/04 00:24:57;;;;;;;19.20;11.27;;;;;;;7.44;83.58;96649.06;5092967;28;20133;-64
2021/11/04 00:27:23;;;;;;;15.93;11.13;;;;;;;7.40;83.75;96645.66;5092924;28;20028;-61
2021/11/04 00:29:48;;;;;;;12.40;9.63;;;;;;;7.45;83.32;96649.00;5092657;28;20065;-65
2021/11/04 00:32:14;;;;;;;16.67;10.35;;;;;;;7.49;82.76;96659.34;5092856;28;20036;-65
2021/11/04 00:34:39;;;;;;;16.85;10.20;;;;;;;7.53;82.93;96671.41;5095230;28;20059;-65
2021/11/04 00:37:05;;;;;;;24.10;10.02;;;;;;;7.55;82.45;96665.25;5096730;28;20028;-65
2021/11/04 00:39:31;;;;;;;15.63;9.45;;;;;;;7.54;82.39;96666.16;5096652;28;20024;-65
2021/11/04 00:41:57;;;;;;;20.08;12.45;;;;;;;7.55;84.34;96656.59;5096553;28;20485;-62
2021/11/04 00:44:22;;;;;;;25.88;14.02;;;;;;;7.61;85.11;96661.66;5096486;28;20363;-62
2021/11/04 00:46:48;;;;;;;25.38;13.55;;;;;;;7.62;85.17;96668.59;5096566;28;20103;-63
2021/11/04 00:49:14;;;;;;;26.40;14.13;;;;;;;7.68;85.97;96665.81;5096448;28;20030;-64
2021/11/04 00:51:39;;;;;;;24.67;13.73;;;;;;;7.81;86.04;96675.94;5096471;28;20032;-66
2021/11/04 00:54:05;;;;;;;23.60;11.55;;;;;;;7.84;85.70;96673.25;5096270;28;20458;-64
2021/11/04 00:56:30;;;;;;;21.95;12.70;;;;;;;7.91;85.38;96673.94;5096324;28;20707;-61
2021/11/04 00:58:56;;;;;;;19.00;12.00;;;;;;;7.95;85.54;96670.38;5096334;28;20024;-63
2021/11/04 01:01:23;;;;;;;24.10;12.93;;;;;;;7.96;85.38;96667.75;5096134;28;20105;-63
2021/11/04 01:03:50;;;;;;;28.73;13.02;;;;;;;8.00;85.73;96668.50;5096204;28;20020;-62
2021/11/04 01:06:16;;;;;;;22.55;13.27;;;;;;;8.06;85.67;96670.09;5096107;28;20043;-63
2021/11/04 01:08:42;;;;;;;33.05;13.52;;;;;;;8.05;86.13;96674.47;5096042;28;20534;-63
2021/11/04 01:11:08;;;;;;;22.98;9.73;;;;;;;8.17;85.97;96667.22;5096186;28;20024;-66
2021/11/04 01:13:36;;;;;;;20.08;11.48;;;;;;;8.22;85.65;96670.56;5096081;28;20024;-61
2021/11/04 01:16:02;;;;;;;19.02;10.75;;;;;;;8.25;85.75;96673.06;5095912;28;20016;-62
2021/11/04 01:18:28;;;;;;;25.02;11.95;;;;;;;8.33;85.50;96676.34;5095896;28;20028;-64
2021/11/04 01:20:54;;;;;;;17.48;10.80;;;;;;;8.40;85.42;96684.00;5095934;28;20028;-61
2021/11/04 01:23:20;;;;;;;19.70;11.82;;;;;;;8.44;85.18;96690.84;5095935;28;20466;-64
2021/11/04 01:25:46;;;;;;;20.77;11.88;;;;;;;8.52;84.97;96698.44;5095871;28;20374;-63
2021/11/04 01:28:12;;;;;;;19.55;10.88;;;;;;;8.59;84.86;96698.28;5095659;28;20084;-62
2021/11/04 01:30:38;;;;;;;17.50;11.25;;;;;;;8.64;84.55;96700.72;5095536;28;20028;-66
2021/11/04 01:33:05;;;;;;;21.13;11.50;;;;;;;8.67;84.68;96690.22;5095585;28;20024;-64
2021/11/04 01:35:31;;;;;;;25.23;12.75;;;;;;;8.69;85.30;96688.44;5095658;28;20020;-62
2021/11/04 01:37:59;;;;;;;27.35;14.02;;;;;;;8.82;85.60;96696.75;5095530;28;20016;-64
2021/11/04 01:40:25;;;;;;;19.35;11.10;;;;;;;8.91;85.46;96687.81;5095469;28;20077;-63
2021/11/04 01:42:50;;;;;;;18.65;11.45;;;;;;;8.95;84.81;96693.81;5095357;28;20119;-65
2021/11/04 01:45:16;;;;;;;23.65;12.52;;;;;;;8.92;85.06;96697.38;5094994;28;20120;-63
2021/11/04 01:47:45;;;;;;;27.85;13.75;;;;;;;8.88;85.54;96694.88;5095346;28;20078;-62
2021/11/04 01:50:15;;;;;;;22.73;12.98;;;;;;;8.96;85.53;96704.19;5095416;28;20089;-64
2021/11/04 01:52:45;;;;;;;17.45;9.30;;;;;;;9.01;85.56;96701.47;5095376;28;20031;-60
2021/11/04 01:55:16;;;;;;;18.73;8.60;;;;;;;9.07;85.28;96701.28;5095206;28;20032;-64
2021/11/04 01:57:42;;;;;;;18.85;11.65;;;;;;;9.10;85.25;96700.34;5095201;28;20081;-62
2021/11/04 02:00:08;;;;;;;26.73;12.70;;;;;;;9.07;85.28;96700.44;5094996;28;20428;-61
2021/11/04 02:02:40;;;;;;;28.58;14.43;;;;;;;9.12;85.49;96697.69;5095132;28;20538;-63
2021/11/04 02:05:07;;;;;;;20.83;12.13;;;;;;;9.14;85.49;96701.09;5094990;28;20059;-61
2021/11/04 02:07:58;;;;;;;25.45;15.23;;;;;;;9.04;85.67;96698.78;5094971;28;20047;-62
2021/11/04 02:10:26;;;;;;;39.35;19.30;;;;;;;9.10;86.10;96706.38;5094966;28;20111;-61
2021/11/04 02:13:16;;;;;;;29.20;14.43;;;;;;;9.17;85.93;96709.69;5094935;28;20031;-63
2021/11/04 02:15:45;;;;;;;26.88;14.40;;;;;;;9.20;85.76;96714.81;5094826;28;20028;-64
2021/11/04 02:18:13;;;;;;;20.30;12.73;;;;;;;9.16;85.98;96708.00;5094707;28;20542;-63
2021/11/04 02:21:06;;;;;;;23.40;13.07;;;;;;;9.29;85.64;96698.03;5094600;28;20070;-64
2021/11/04 02:23:39;;;;;;;29.02;15.50;;;;;;;9.21;85.65;96700.00;5094604;28;20032;-62
2021/11/04 02:26:05;;;;;;;45.50;20.48;;;;;;;9.29;86.75;96711.09;5094741;28;20028;-63
2021/11/04 02:28:33;;;;;;;44.17;20.05;;;;;;;9.43;88.49;96704.59;5094493;28;20024;-64
2021/11/04 02:31:00;;;;;;;33.55;17.65;;;;;;;9.49;87.85;96699.19;5094533;28;20444;-63
2021/11/04 02:33:26;;;;;;;36.95;17.80;;;;;;;9.52;87.57;96706.91;5094397;28;20027;-63
2021/11/04 02:35:53;;;;;;;22.73;13.82;;;;;;;9.54;87.03;96707.72;5094359;28;20016;-65
2021/11/04 02:38:20;;;;;;;22.70;13.27;;;;;;;9.60;86.17;96709.25;5094582;28;20044;-63
2021/11/04 02:40:47;;;;;;;21.58;13.23;;;;;;;9.63;86.04;96710.94;5094283;28;20113;-64
2021/11/04 02:43:15;;;;;;;24.77;15.00;;;;;;;9.65;85.67;96716.97;5094201;28;20039;-61
2021/11/04 02:45:41;;;;;;;29.13;13.90;;;;;;;9.69;85.15;96721.22;5094239;28;20020;-65
2021/11/04 02:48:07;;;;;;;22.40;13.32;;;;;;;9.70;85.48;96715.06;5094164;28;20036;-62
2021/11/04 02:50:33;;;;;;;25.63;15.38;;;;;;;9.68;85.56;96712.50;5094166;28;20030;-65
2021/11/04 02:52:59;;;;;;;33.90;17.50;;;;;;;9.68;85.57;96714.25;5094102;28;20012;-65
2021/11/04 02:55:33;;;;;;;40.00;20.20;;;;;;;9.73;85.86;96718.44;5094112;28;20081;-66
2021/11/04 02:58:03;;;;;;;35.20;18.23;;;;;;;9.80;86.64;96719.09;5093394;28;20098;-62
2021/11/04 03:00:29;;;;;;;31.02;17.08;;;;;;;9.86;86.86;96723.28;5093829;28;20051;-64
2021/11/04 03:02:54;;;;;;;22.17;15.43;;;;;;;9.91;86.75;96721.38;5093984;28;20028;-63
2021/11/04 03:05:20;;;;;;;25.95;15.05;;;;;;;9.94;85.99;96728.25;5094040;28;20115;-63
2021/11/04 03:07:46;;;;;;;22.95;15.18;;;;;;;9.98;85.61;96725.50;5093781;28;20012;-62
2021/11/04 03:10:11;;;;;;;22.45;14.18;;;;;;;10.00;85.54;96728.06;5093655;28;20023;-62
2021/11/04 03:12:37;;;;;;;20.17;13.88;;;;;;;10.00;85.15;96728.06;5093756;28;20066;-66
2021/11/04 03:15:08;;;;;;;24.83;15.30;;;;;;;10.02;85.37;96723.63;5093746;28;20060;-64
2021/11/04 03:17:36;;;;;;;36.95;13.82;;;;;;;10.07;85.38;96728.69;5093706;28;20073;-65
2021/11/04 03:20:02;;;;;;;23.35;12.93;;;;;;;10.05;85.10;96725.28;5093606;28;20028;-65
2021/11/04 03:22:28;;;;;;;39.10;16.55;;;;;;;10.02;85.32;96733.25;5093468;28;20111;-63
2021/11/04 03:24:53;;;;;;;27.67;15.68;;;;;;;10.09;86.22;96737.34;5093606;28;20111;-63
2021/11/04 03:27:19;;;;;;;30.48;15.18;;;;;;;10.11;86.04;96730.28;5093580;28;20020;-63
2021/11/04 03:29:45;;;;;;;22.95;12.77;;;;;;;10.15;85.41;96734.53;5093370;28;20484;-64
2021/11/04 03:32:17;;;;;;;28.65;14.95;;;;;;;10.06;85.49;96733.06;5093477;28;20385;-66
2021/11/04 03:34:43;;;;;;;31.23;16.65;;;;;;;10.03;85.77;96734.94;5093463;28;20400;-65
2021/11/04 03:37:11;;;;;;;26.20;14.75;;;;;;;10.08;86.16;96738.25;5092101;28;20378;-61
2021/11/04 03:39:39;;;;;;;24.80;14.18;;;;;;;10.16;85.88;96738.00;5093343;28;20497;-62
2021/11/04 03:42:05;;;;;;;33.53;16.35;;;;;;;10.19;86.75;96738.75;5093255;28;20477;-63
2021/11/04 03:44:32;;;;;;;31.42;15.98;;;;;;;10.25;86.67;96742.91;5093286;28;20031;-63
2021/11/04 03:47:00;;;;;;;29.55;14.63;;;;;;;10.29;86.84;96741.91;5093202;28;20020;-66
2021/11/04 03:49:29;;;;;;;32.50;16.45;;;;;;;10.33;86.54;96747.91;5093266;28;20378;-63
2021/11/04 03:51:55;;;;;;;29.08;15.52;;;;;;;10.35;86.51;96751.28;5093256;28;20024;-61
2021/11/04 03:54:22;;;;;;;32.28;16.35;;;;;;;10.40;86.50;96757.25;5093077;28;20020;-64
2021/11/04 03:56:51;;;;;;;31.05;17.73;;;;;;;10.45;86.45;96755.34;5093139;28;20020;-65
2021/11/04 03:59:17;;;;;;;28.10;16.17;;;;;;;10.50;86.44;96755.19;5092901;28;20462;-65
2021/11/04 04:01:43;;;;;;;23.77;14.18;;;;;;;10.53;86.15;96755.09;5091959;28;20023;-63
2021/11/04 04:04:09;;;;;;;22.95;12.77;;;;;;;10.52;85.91;96756.00;5093147;28;20016;-61
2021/11/04 04:06:35;;;;;;;24.00;14.77;;;;;;;10.51;85.68;96758.66;5093064;28;20259;-62
2021/11/04 04:09:03;;;;;;;26.13;14.88;;;;;;;10.54;85.64;96767.25;5096274;28;20084;-65
2021/11/04 04:11:29;;;;;;;28.15;15.07;;;;;;;10.60;85.66;96763.59;5097154;28;20020;-62
2021/11/04 04:13:55;;;;;;;25.70;14.65;;;;;;;10.60;85.56;96753.97;5097213;28;20034;-59
2021/11/04 04:16:22;;;;;;;34.90;17.50;;;;;;;10.65;85.50;96756.41;5097121;28;20369;-62
2021/11/04 04:18:49;;;;;;;25.08;15.02;;;;;;;10.65;85.96;96763.44;5097022;28;20025;-63
2021/11/04 04:21:15;;;;;;;23.13;14.10;;;;;;;10.66;85.72;96766.00;5097229;28;20016;-62
2021/11/04 04:23:41;;;;;;;29.08;15.20;;;;;;;10.69;85.51;96773.72;5096909;28;20206;-64
2021/11/04 04:26:07;;;;;;;31.63;16.90;;;;;;;10.69;85.58;96771.09;5096985;28;20115;-62
2021/11/04 04:28:33;;;;;;;30.58;17.45;;;;;;;10.73;85.87;96772.72;5096950;28;20103;-62
2021/11/04 04:30:58;;;;;;;25.05;14.95;;;;;;;10.71;85.61;96774.53;5096804;28;20130;-61
2021/11/04 04:33:24;;;;;;;28.75;15.95;;;;;;;10.76;85.85;96770.88;5096761;28;20087;-63
2021/11/04 04:35:51;;;;;;;33.05;16.08;;;;;;;10.77;85.80;96764.75;5096721;28;20017;-61
2021/11/04 04:38:17;;;;;;;32.28;15.77;;;;;;;10.81;85.60;96766.38;5096734;28;20028;-64
2021/11/04 04:40:43;;;;;;;33.08;15.75;;;;;;;10.85;85.81;96771.44;5096645;28;20031;-60
2021/11/04 04:43:09;;;;;;;30.23;16.08;;;;;;;10.90;85.45;96775.66;5096541;28;20478;-61
2021/11/04 04:45:35;;;;;;;29.85;16.67;;;;;;;10.91;85.59;96779.97;5096538;28;20153;-63
2021/11/04 04:48:01;;;;;;;29.05;16.70;;;;;;;10.90;85.86;96776.50;5096619;28;20021;-65
2021/11/04 04:50:27;;;;;;;34.22;16.35;;;;;;;10.93;85.81;96781.59;5098707;28;20036;-62
2021/11/04 04:52:52;;;;;;;28.02;16.38;;;;;;;10.98;85.83;96778.81;5098151;28;20024;-63
2021/11/04 04:55:18;;;;;;;27.63;16.50;;;;;;;10.97;85.93;96787.59;5097094;28;20020;-63
2021/11/04 04:57:43;;;;;;;29.08;15.95;;;;;;;11.03;86.82;96790.00;5099961;28;20016;-66
2021/11/04 05:00:12;;;;;;;22.50;16.35;;;;;;;11.05;86.38;96795.19;5096827;28;20118;-63
2021/11/04 05:02:38;;;;;;;37.08;19.88;;;;;;;11.05;87.29;96801.25;5096257;28;20020;-64
2021/11/04 05:05:04;;;;;;;20.48;15.68;;;;;;;11.09;86.99;96786.31;5096299;28;20466;-62
2021/11/04 05:07:30;;;;;;;33.08;18.02;;;;;;;11.14;86.83;96792.25;5096277;28;20024;-66
2021/11/04 05:09:56;;;;;;;23.42;16.63;;;;;;;11.18;86.59;96780.75;5096017;28;20492;-66
2021/11/04 05:12:21;;;;;;;23.48;16.75;;;;;;;11.22;86.32;96784.09;5096185;28;20031;-66
2021/11/04 05:14:47;;;;;;;24.98;16.02;;;;;;;11.28;86.05;96788.22;5096053;28;20024;-63
2021/11/04 05:17:12;;;;;;;28.90;17.85;;;;;;;11.31;86.49;96791.59;5095928;28;20470;-61
2021/11/04 05:19:38;;;;;;;30.48;19.73;;;;;;;11.37;86.33;96780.03;5095238;28;20020;-61
2021/11/04 05:22:04;;;;;;;25.73;17.42;;;;;;;11.42;86.22;96785.97;5096695;28;20055;-63
2021/11/04 05:24:34;;;;;;;24.30;16.55;;;;;;;11.42;85.99;96787.72;5095813;28;20020;-63
2021/11/04 05:27:01;;;;;;;18.50;15.00;;;;;;;11.42;85.68;96790.34;5097579;28;20036;-62
2021/11/04 05:29:27;;;;;;;23.20;14.48;;;;;;;11.44;85.30;96785.91;5097508;28;20085;-65
2021/11/04 05:31:53;;;;;;;23.35;15.48;;;;;;;11.45;85.20;96793.72;5098893;28;20024;-66
2021/11/04 05:34:19;;;;;;;24.05;15.90;;;;;;;11.48;84.90;96801.47;5096855;28;20032;-63
2021/11/04 05:36:44;;;;;;;25.20;16.77;;;;;;;11.49;84.93;96795.31;5095610;28;20024;-61
2021/11/04 05:39:10;;;;;;;28.90;19.80;;;;;;;11.55;84.74;96801.22;5096107;28;20020;-65
2021/11/04 05:41:35;;;;;;;35.15;20.15;;;;;;;11.58;84.87;96804.59;5095892;28;20020;-66
2021/11/04 05:44:01;;;;;;;29.25;14.93;;;;;;;11.61;84.91;96801.84;5095496;28;20428;-62
2021/11/04 05:46:27;;;;;;;24.02;15.73;;;;;;;11.63;85.11;96805.25;5095371;28;20024;-62
2021/11/04 05:48:52;;;;;;;23.70;16.85;;;;;;;11.68;85.10;96814.72;5095392;28;20450;-61
2021/11/04 05:51:18;;;;;;;20.77;15.88;;;;;;;11.72;85.25;96824.16;5095275;28;20583;-64
2021/11/04 05:53:44;;;;;;;20.58;16.02;;;;;;;11.65;85.08;96820.06;5096028;28;20032;-62
2021/11/04 05:56:09;;;;;;;22.95;15.57;;;;;;;11.68;85.17;96833.91;5095231;28;20032;-64
2021/11/04 05:58:35;;;;;;;17.92;14.95;;;;;;;11.68;84.93;96823.41;5095048;28;20058;-62
2021/11/04 06:01:01;;;;;;;19.83;14.02;;;;;;;11.72;85.03;96829.41;5095046;28;20101;-61
2021/11/04 06:03:27;;;;;;;17.23;13.38;;;;;;;11.74;84.78;96822.34;5095174;28;20021;-64
2021/11/04 06:05:54;;;;;;;16.30;13.50;;;;;;;11.70;84.64;96828.59;5095383;28;20024;-60
2021/11/04 06:08:19;;;;;;;18.13;14.32;;;;;;;11.67;84.84;96821.72;5095860;28;20024;-62
2021/11/04 06:10:45;;;;;;;19.13;15.35;;;;;;;11.73;84.82;96831.09;5094802;28;20024;-65
2021/11/04 06:13:11;;;;;;;19.23;14.85;;;;;;;11.81;84.53;96836.94;5094890;28;20107;-65
2021/11/04 06:15:36;;;;;;;23.35;15.27;;;;;;;11.87;84.50;96841.06;5094869;28;20020;-65
2021/11/04 06:18:02;;;;;;;19.20;15.07;;;;;;;11.94;84.27;96839.94;5094961;28;20028;-65
2021/11/04 06:20:29;;;;;;;17.42;13.75;;;;;;;12.00;84.32;96837.06;5094730;28;20474;-63
2021/11/04 06:22:55;;;;;;;17.63;14.02;;;;;;;11.95;83.99;96841.63;5094624;28;20478;-64
2021/11/04 06:25:21;;;;;;;20.00;14.20;;;;;;;11.86;83.96;96839.38;5094600;28;20026;-64
2021/11/04 06:27:47;;;;;;;18.05;15.10;;;;;;;11.88;84.12;96848.03;5093294;28;20054;-65
2021/11/04 06:30:13;;;;;;;20.75;16.10;;;;;;;11.93;84.15;96840.84;5094538;28;20051;-63
2021/11/04 06:32:39;;;;;;;19.27;16.30;;;;;;;11.93;84.55;96839.97;5092283;28;20031;-65
2021/11/04 06:35:08;;;;;;;19.40;14.65;;;;;;;11.98;84.10;96844.13;5094486;28;20013;-66
2021/11/04 06:37:34;;;;;;;19.10;14.57;;;;;;;12.09;83.69;96849.00;5094394;28;20032;-60
2021/11/04 06:39:59;;;;;;;16.25;12.85;;;;;;;12.10;82.58;96847.22;5094337;28;20024;-63
2021/11/04 06:42:25;;;;;;;21.25;14.48;;;;;;;12.01;83.33;96845.78;5094325;28;20024;-65
2021/11/04 06:44:51;;;;;;;19.55;15.48;;;;;;;12.03;83.73;96850.94;5094308;28;20023;-63
2021/11/04 06:47:32;;;;;;;18.92;16.30;;;;;;;11.99;83.78;96845.84;5094168;28;20388;-62
2021/11/04 06:49:58;;;;;;;21.73;15.57;;;;;;;11.92;83.56;96835.66;5095109;28;20111;-62
2021/11/04 06:52:35;;;;;;;18.25;14.85;;;;;;;12.03;83.73;96853.56;5094092;28;20020;-62
2021/11/04 06:55:03;;;;;;;19.23;16.23;;;;;;;12.02;83.77;96850.13;5094154;28;20031;-66
2021/11/04 06:57:31;;;;;;;20.95;15.63;;;;;;;12.06;83.52;96862.19;5094106;28;20434;-63
2021/11/04 07:00:01;;;;;;;22.50;16.15;;;;;;;12.21;83.23;96865.16;5093805;28;20044;-64
2021/11/04 07:02:35;;;;;;;17.27;15.32;;;;;;;12.30;82.84;96853.44;5093975;28;20028;-61
2021/11/04 07:05:03;;;;;;;17.45;14.27;;;;;;;12.35;82.28;96857.59;5093828;28;20032;-62
2021/11/04 07:07:48;;;;;;;17.77;14.05;;;;;;;12.34;82.01;96858.50;5093944;28;20024;-64
2021/11/04 07:10:17;;;;;;;16.77;13.57;;;;;;;12.35;82.70;96862.84;5093777;28;20032;-63
2021/11/04 07:12:46;;;;;;;16.80;13.20;;;;;;;12.45;81.22;96860.69;5093777;28;20051;-64
2021/11/04 07:15:13;;;;;;;25.73;15.55;;;;;;;12.44;82.06;96861.63;5093722;28;20024;-61
2021/11/04 07:17:43;;;;;;;17.02;13.07;;;;;;;12.54;81.35;96858.59;5093866;28;20027;-63
2021/11/04 07:20:12;;;;;;;19.17;14.65;;;;;;;12.52;80.54;96861.28;5093650;28;20016;-63
2021/11/04 07:23:00;;;;;;;21.08;15.13;;;;;;;12.49;80.99;96864.03;5092314;28;20478;-66
2021/11/04 07:25:28;;;;;;;16.52;12.93;;;;;;;12.41;80.56;96874.00;5093607;28;20028;-64
2021/11/04 07:28:06;;;;;;;18.73;13.85;;;;;;;12.33;80.47;96874.31;5093662;28;20430;-62
2021/11/04 07:30:33;;;;;;;18.75;14.90;;;;;;;12.24;80.95;96872.91;5093586;28;20032;-62
2021/11/04 07:33:04;;;;;;;19.00;15.00;;;;;;;12.22;81.45;96875.59;5093466;28;20478;-61
2021/11/04 07:35:48;;;;;;;21.75;15.40;;;;;;;12.25;81.30;96875.47;5093317;28;20519;-64
2021/11/04 07:38:15;;;;;;;18.02;14.68;;;;;;;12.30;81.71;96863.94;5093444;28;20089;-61
2021/11/04 07:40:40;;;;;;;22.10;16.67;;;;;;;12.40;82.75;96862.63;5093391;28;20356;-65
2021/11/04 07:43:06;;;;;;;17.08;13.80;;;;;;;12.63;81.65;96873.97;5093094;28;20089;-64
2021/11/04 07:45:33;;;;;;;17.98;14.48;;;;;;;12.72;81.26;96872.75;5093297;28;20054;-64
2021/11/04 07:48:00;;;;;;;18.13;13.50;;;;;;;12.94;80.31;96880.56;5093256;28;20086;-66
2021/11/04 07:50:28;;;;;;;16.35;13.15;;;;;;;13.32;78.24;96881.63;5093089;28;20035;-64
2021/11/04 07:52:54;;;;;;;15.85;12.85;;;;;;;13.61;77.46;96882.16;5093272;28;20103;-63
2021/11/04 07:55:20;;;;;;;17.27;13.35;;;;;;;13.95;76.58;96883.25;5093354;28;20574;-67
2021/11/04 07:57:47;;;;;;;17.58;13.82;;;;;;;14.17;76.68;96887.50;5093078;28;20477;-62
2021/11/04 08:00:16;;;;;;;18.08;13.43;;;;;;;14.25;74.34;96882.72;5092933;28;20032;-65
2021/11/04 08:02:43;;;;;;;14.43;12.38;;;;;;;14.57;73.67;96876.81;5093033;28;20043;-64
2021/11/04 08:05:11;;;;;;;15.68;12.55;;;;;;;15.11;72.59;96880.38;5093147;28;20472;-65
2021/11/04 08:07:39;;;;;;;16.05;13.23;;;;;;;15.69;69.72;96883.56;5093138;28;20113;-64
2021/11/04 08:10:07;;;;;;;13.10;11.15;;;;;;;15.68;68.29;96878.34;5092952;28;20030;-65
2021/11/04 08:12:34;;;;;;;16.00;12.95;;;;;;;15.74;69.38;96883.31;5092994;28;20028;-61
2021/11/04 08:15:03;;;;;;;14.90;12.85;;;;;;;15.81;68.84;96870.63;5092985;28;20525;-60
2021/11/04 08:17:29;;;;;;;14.77;12.00;;;;;;;15.95;68.68;96873.34;5093031;28;20105;-63
2021/11/04 08:19:55;;;;;;;13.38;10.85;;;;;;;16.17;67.96;96874.88;5092960;28;20066;-62
2021/11/04 08:22:21;;;;;;;13.57;11.38;;;;;;;16.34;67.77;96881.00;5092893;28;20040;-64
2021/11/04 08:24:47;;;;;;;13.70;11.27;;;;;;;16.51;67.73;96874.75;5092923;28;20031;-65
2021/11/04 08:27:14;;;;;;;11.25;10.05;;;;;;;16.47;66.25;96871.44;5092810;28;20027;-62
2021/11/04 08:29:41;;;;;;;12.13;10.73;;;;;;;16.51;66.47;96862.41;5092826;28;20028;-66
2021/11/04 08:32:08;;;;;;;14.27;10.82;;;;;;;16.47;67.30;96870.59;5092821;28;20024;-66
2021/11/04 08:34:35;;;;;;;14.35;11.88;;;;;;;16.17;68.02;96867.78;5092876;28;20111;-66
2021/11/04 08:37:03;;;;;;;14.15;10.88;;;;;;;15.99;68.45;96869.69;5092756;28;20493;-63
2021/11/04 08:39:29;;;;;;;13.60;10.93;;;;;;;15.91;68.97;96870.06;5092737;28;20481;-62
2021/11/04 08:41:56;;;;;;;12.43;11.18;;;;;;;16.03;69.52;96872.97;5092826;28;20031;-63
2021/11/04 08:44:21;;;;;;;12.50;10.77;;;;;;;16.22;68.83;96872.81;5092876;28;20032;-63
2021/11/04 08:46:48;;;;;;;11.95;10.75;;;;;;;16.44;68.82;96868.97;5092725;28;20479;-61
2021/11/04 08:49:14;;;;;;;11.60;10.38;;;;;;;16.76;67.62;96865.41;5092575;28;20055;-66
2021/11/04 08:51:40;;;;;;;12.18;10.88;;;;;;;17.03;67.04;96864.72;5092684;28;20020;-63
2021/11/04 08:54:07;;;;;;;14.25;11.32;;;;;;;17.33;66.37;96860.41;5092693;28;20078;-63
2021/11/04 08:56:36;;;;;;;17.52;14.43;;;;;;;17.59;65.22;96865.88;5096399;28;20034;-61
2021/11/04 08:59:04;;;;;;;16.35;13.95;;;;;;;17.68;65.21;96871.47;5096305;28;20035;-62
2021/11/04 09:01:30;;;;;;;17.38;13.80;;;;;;;17.80;63.61;96864.56;5096069;28;20044;-62
2021/11/04 09:03:55;;;;;;;16.83;13.15;;;;;;;18.05;63.87;96860.38;5095015;28;20351;-64
2021/11/04 09:06:21;;;;;;;17.27;12.48;;;;;;;18.18;63.08;96860.44;5096375;28;20103;-66
2021/11/04 09:08:47;;;;;;;14.07;11.88;;;;;;;18.43;62.03;96858.03;5096182;28;20016;-66
2021/11/04 09:11:12;;;;;;;13.82;10.63;;;;;;;18.36;62.05;96859.38;5096042;28;20067;-63
2021/11/04 09:13:38;;;;;;;10.35;9.25;;;;;;;18.19;61.49;96858.66;5096114;28;20539;-64
2021/11/04 09:16:04;;;;;;;14.30;11.90;;;;;;;17.97;63.04;96864.44;5095992;28;20378;-63
2021/11/04 09:18:29;;;;;;;16.45;11.13;;;;;;;17.88;64.20;96864.06;5095959;28;20056;-65
2021/11/04 09:20:55;;;;;;;12.80;10.10;;;;;;;17.71;63.07;96866.91;5096005;28;20129;-63
2021/11/04 09:23:21;;;;;;;14.32;10.68;;;;;;;17.59;63.71;96871.16;5095782;28;20012;-62
2021/11/04 09:25:47;;;;;;;14.90;11.18;;;;;;;17.56;64.38;96869.56;5095749;28;20079;-62
2021/11/04 09:28:13;;;;;;;11.57;10.38;;;;;;;17.58;64.65;96867.66;5095774;28;20026;-60
2021/11/04 09:30:41;;;;;;;13.10;10.57;;;;;;;17.68;64.05;96858.25;5095700;28;20059;-64
2021/11/04 09:33:07;;;;;;;12.73;10.30;;;;;;;17.80;64.93;96856.63;5095828;28;20028;-61
2021/11/04 09:35:35;;;;;;;15.70;11.73;;;;;;;17.94;63.16;96854.88;5095640;28;20031;-62
2021/11/04 09:38:01;;;;;;;13.88;10.23;;;;;;;18.09;61.78;96849.59;5095520;28;20099;-62
2021/11/04 09:40:27;;;;;;;10.35;9.23;;;;;;;18.27;60.90;96851.06;5095650;28;20103;-65
2021/11/04 09:42:54;;;;;;;11.52;10.32;;;;;;;18.35;61.70;96847.06;5095414;28;20529;-63
2021/11/04 09:45:20;;;;;;;11.32;9.98;;;;;;;18.48;62.65;96841.84;5095593;28;20478;-65
2021/11/04 09:47:45;;;;;;;10.65;9.52;;;;;;;18.66;61.79;96842.44;5095467;28;20100;-61
2021/11/04 09:50:17;;;;;;;10.80;9.43;;;;;;;18.74;61.62;96833.97;5095332;28;20412;-63
2021/11/04 09:52:44;;;;;;;12.15;10.18;;;;;;;18.83;59.90;96838.66;5095343;28;20386;-64
2021/11/04 09:55:19;;;;;;;13.38;11.32;;;;;;;18.84;61.34;96837.69;5095411;28;20084;-62
2021/11/04 09:57:47;;;;;;;14.82;11.30;;;;;;;18.99;60.41;96833.16;5095278;28;20056;-63
2021/11/04 10:00:14;;;;;;;15.45;12.05;;;;;;;19.09;60.54;96833.44;5094958;28;20059;-63
2021/11/04 10:02:43;;;;;;;16.95;13.15;;;;;;;19.17;59.41;96830.22;5095157;28;20016;-62
2021/11/04 10:05:12;;;;;;;15.55;12.45;;;;;;;19.19;59.93;96825.69;5094794;28;20031;-66
2021/11/04 10:07:43;;;;;;;15.82;12.05;;;;;;;19.21;60.40;96830.88;5095102;28;20020;-62
2021/11/04 10:10:09;;;;;;;20.42;14.93;;;;;;;19.23;59.23;96827.16;5095025;28;20386;-64
2021/11/04 10:12:35;;;;;;;18.63;13.35;;;;;;;19.26;60.87;96826.97;5094928;28;20032;-64
2021/11/04 10:15:27;;;;;;;18.20;12.85;;;;;;;19.21;61.22;96822.94;5094813;28;20016;-63
2021/11/04 10:18:08;;;;;;;18.67;13.13;;;;;;;19.17;61.21;96827.59;5092840;28;20482;-62
2021/11/04 10:20:35;;;;;;;15.95;12.77;;;;;;;19.18;61.53;96816.88;5095048;28;20039;-63
2021/11/04 10:23:04;;;;;;;22.48;14.20;;;;;;;19.21;62.31;96820.28;5094710;28;20040;-63
2021/11/04 10:25:31;;;;;;;17.15;12.73;;;;;;;19.17;61.55;96814.31;5094656;28;20034;-60
2021/11/04 10:27:58;;;;;;;20.25;13.88;;;;;;;19.28;62.09;96821.53;5094649;28;20426;-64
2021/11/04 10:30:43;;;;;;;19.45;13.95;;;;;;;19.30;60.62;96815.19;5094625;28;20035;-62
2021/11/04 10:33:19;;;;;;;18.10;13.73;;;;;;;19.32;61.18;96817.72;5094642;28;20024;-66
2021/11/04 10:36:10;;;;;;;17.80;12.75;;;;;;;19.31;60.26;96822.19;5094436;28;20024;-63
2021/11/04 10:38:37;;;;;;;20.88;13.68;;;;;;;19.30;61.22;96819.66;5094520;28;20092;-63
2021/11/04 10:41:12;;;;;;;18.55;12.98;;;;;;;19.32;60.55;96815.94;5094551;28;20028;-64
2021/11/04 10:43:39;;;;;;;17.00;12.25;;;;;;;19.46;60.27;96814.13;5094386;28;20016;-63
2021/11/04 10:46:07;;;;;;;18.52;12.20;;;;;;;19.53;59.46;96803.91;5094408;28;20024;-64
2021/11/04 10:48:41;;;;;;;11.68;9.02;;;;;;;19.54;56.92;96814.41;5094233;28;20032;-66
2021/11/04 10:51:11;;;;;;;17.92;12.40;;;;;;;19.50;58.12;96812.94;5094191;28;20032;-62
2021/11/04 10:53:37;;;;;;;18.30;11.25;;;;;;;19.36;57.31;96810.41;5093023;28;20028;-65
2021/11/04 10:56:14;;;;;;;23.10;12.85;;;;;;;19.31;59.02;96811.59;5094280;28;20035;-64
2021/11/04 10:58:40;;;;;;;24.02;12.80;;;;;;;19.23;59.46;96807.78;5094116;28;20028;-63
2021/11/04 11:01:07;;;;;;;21.67;12.27;;;;;;;19.13;59.38;96803.09;5093873;28;20059;-63
2021/11/04 11:03:33;;;;;;;17.92;12.32;;;;;;;19.11;59.53;96807.66;5093845;28;20108;-64
2021/11/04 11:06:06;;;;;;;18.55;11.98;;;;;;;19.05;59.63;96800.06;5093837;28;20020;-65
2021/11/04 11:08:32;;;;;;;20.80;13.52;;;;;;;19.05;60.41;96803.59;5094042;28;20027;-61
2021/11/04 11:10:58;;;;;;;20.60;12.38;;;;;;;19.06;60.29;96807.94;5093917;28;20036;-64
2021/11/04 11:13:24;;;;;;;20.63;12.75;;;;;;;18.91;59.74;96806.34;5093866;28;20092;-62
2021/11/04 11:15:54;;;;;;;20.85;12.60;;;;;;;18.86;59.72;96809.28;5093829;28;20107;-59
2021/11/04 11:18:25;;;;;;;18.23;12.82;;;;;;;18.92;59.12;96813.31;5093073;28;20095;-64
2021/11/04 11:20:52;;;;;;;;;;;;;;;18.87;59.36;96799.56;5094166;28;20038;-64